NEODyS-2

Near Earth Objects - Dynamic Site
NEODyS ∴ Observatories ∴ Site 691 ∴ Obs & residuals
Contact »
691  ▹ 
OBSERVATIONS AND RESIDUALS

691-Steward Observatory, Kitt Peak-Spacewatch

Detections | Residuals | Detections & Residuals

[1-200] [201-400] [401-600] [601-800] [801-1000] [1001-1200] [1201-1400] [1401-1600] [1601-1800] [1801-2000] [2001-2200] [2201-2400] [2401-2600] [2601-2800] [2801-3000] [3001-3200] [3201-3400] [3401-3600] [3601-3800] [3801-4000] [4001-4200] [4201-4400] [4401-4600] [4601-4800] [4801-5000] [5001-5200] [5201-5400] [5401-5600] [5601-5800] [5801-6000] [6001-6200] [6201-6400] [6401-6600] [6601-6800] [6801-7000] [7001-7200] [7201-7400] [7401-7600] [7601-7800] [7801-8000] [8001-8200] [8201-8400] [8401-8600] [8601-8800] [8801-9000] [9001-9200] [9201-9400] [9401-9600] [9601-9800] [9801-10000] [10001-10200] [10201-10400] [10401-10600] [10601-10800] [10801-11000] [11001-11200] [11201-11400] [11401-11600] [11601-11800] [11801-12000] [12001-12200] [12201-12400] [12401-12600] [12601-12800] [12801-13000] [13001-13200] [13201-13400] [13401-13600] [13601-13800] [13801-14000] [14001-14200] [14201-14400] [14401-14600] [14601-14800] [14801-15000] [15001-15200] [15201-15400] [15401-15600] [15601-15800] [15801-16000] [16001-16200] [16201-16400] [16401-16600] [16601-16800] [16801-17000] [17001-17200] [17201-17400] [17401-17600] [17601-17800] [17801-18000] [18001-18200] [18201-18400] [18401-18600] [18601-18800] [18801-19000] [19001-19200] [19201-19400] [19401-19600] [19601-19800] [19801-20000] [20001-20200] [20201-20400] [20401-20600] [20601-20800] [20801-21000] [21001-21200] [21201-21400] [21401-21600] [21601-21800] [21801-22000] [22001-22200] [22201-22400] [22401-22600] [22601-22800] [22801-23000] [23001-23200] [23201-23400] [23401-23600] [23601-23800] [23801-24000] [24001-24200] [24201-24400] [24401-24600] [24601-24800] [24801-25000] [25001-25200] [25201-25400] [25401-25600] [25601-25800] [25801-26000] [26001-26200] [26201-26400] [26401-26600] [26601-26800] [26801-27000] [27001-27200] [27201-27400] [27401-27600] [27601-27800] [27801-28000] [28001-28200] [28201-28400] [28401-28600] [28601-28800] [28801-29000] [29001-29200] [29201-29400] [29401-29600] [29601-29800] [29801-30000] [30001-30200] [30201-30400] [30401-30600] [30601-30800] [30801-31000] [31001-31200] [31201-31400] [31401-31600] [31601-31800] [31801-32000] [32001-32200] [32201-32400] [32401-32600] [32601-32800] [32801-33000] [33001-33200] [33201-33400] [33401-33600] [33601-33800] [33801-34000] [34001-34200] [34201-34400] [34401-34600] [34601-34800] [34801-35000] [35001-35200] [35201-35400] [35401-35600] [35601-35800] [35801-36000] [36001-36200] [36201-36400] [36401-36600] [36601-36800] [36801-37000] [37001-37200] [37201-37400] [37401-37600] [37601-37800] [37801-38000] [38001-38200] [38201-38400] [38401-38600] [38601-38800] [38801-39000] [39001-39200] [39201-39400] [39401-39600] [39601-39800] [39801-40000] [40001-40200] [40201-40400] [40401-40600] [40601-40800] [40801-41000] [41001-41200] [41201-41400] [41401-41600] [41601-41800] [41801-42000] [42001-42200] [42201-42400] [42401-42600] [42601-42800] [42801-43000] [43001-43200] [43201-43400] [43401-43600] [43601-43800] [43801-44000] [44001-44200] [44201-44400] [44401-44600] [44601-44800] [44801-45000] [45001-45200] [45201-45400] [45401-45600] [45601-45800] [45801-46000] [46001-46200] [46201-46400] [46401-46600] [46601-46800] [46801-47000] [47001-47200] [47201-47400] [47401-47600] [47601-47800] [47801-48000] [48001-48200] [48201-48400] [48401-48600] [48601-48800] [48801-49000] [49001-49200] [49201-49400] [49401-49600] [49601-49800] [49801-50000] [50001-50200] [50201-50400] [50401-50600] [50601-50741]

Designation T Tech N Date Right Ascension Declination Apparent Magnitude Star Catalog Site code χ Used A Used M
yr-mo-day precision hr:min:sec precision rms F bias residual deg min sec precision rms F bias residual mag/col rms residual
2000EF104 O C 2010-05-22.27590 1.000E-05 15:22:15.990 1.500E-01 0.500 F 0.161 -0.541 -13° 54' 03.50" 1.000E-01 0.500 F -0.004 -0.028 19.6 V 0.70 0.24 o 691 1.09 Yes Yes
2004XL35 O C H 2010-05-22.36219 1.000E-05 16:18:12.750 1.500E-01 0.500 F 0.026 -1.096 -06° 58' 24.70" 1.000E-01 0.500 F 0.147 -0.035 o 691 2.24 Yes No
2004XL35 O C H 2010-05-22.37994 1.000E-05 16:18:10.000 1.500E-01 0.500 F 0.026 -1.673 -06° 58' 43.00" 1.000E-01 0.500 F 0.147 -0.414 o 691 3.40 No No
2004XL35 O C H 2010-05-22.39768 1.000E-05 16:18:07.330 1.500E-01 0.500 F 0.026 -1.123 -06° 59' 01.80" 1.000E-01 0.500 F 0.147 -1.313 o 691 3.44 No No
2010JV153 O C 2010-05-23.30301 1.000E-05 15:45:04.750 1.500E-01 0.500 F 0.078 -0.056 -03° 27' 38.80" 1.000E-01 0.500 F 0.151 -0.155 20.3 V 0.70 0.29 o 691 0.33 Yes Yes
2010JV153 O C 2010-05-23.32075 1.000E-05 15:45:03.420 1.500E-01 0.500 F 0.078 -0.947 -03° 27' 32.20" 1.000E-01 0.500 F 0.151 -0.237 20.6 V 0.70 0.59 o 691 1.99 Yes Yes
2010JV153 O C 2010-05-23.33849 1.000E-05 15:45:02.220 1.500E-01 0.500 F 0.078 0.088 -03° 27' 25.10" 1.000E-01 0.500 F 0.151 0.175 20.3 V 0.70 0.29 o 691 0.39 Yes Yes
2010KY39 O C H 2010-05-23.43408 1.000E-05 20:08:03.790 1.500E-01 0.500 F 0.006 -0.007 +56° 23' 25.90" 1.000E-01 0.500 F 0.275 -1.199 o 691 2.45 Yes No
2010KY39 O C H 2010-05-23.44279 1.000E-05 20:08:06.340 1.500E-01 0.500 F 0.006 -0.571 +56° 23' 41.50" 1.000E-01 0.500 F 0.275 0.217 o 691 1.27 Yes No
2010KY39 O C H 2010-05-23.44547 1.000E-05 20:08:07.230 1.500E-01 0.500 F 0.006 0.133 +56° 23' 45.50" 1.000E-01 0.500 F 0.275 -0.138 o 691 0.40 Yes No
2010KY39 O C H 2010-05-24.43975 1.000E-05 20:13:18.580 1.500E-01 0.500 F -0.023 -0.605 +56° 49' 38.40" 1.000E-01 0.500 F 0.300 -1.030 o 691 2.43 Yes No
2010KY39 O C H 2010-05-24.44902 1.000E-05 20:13:21.390 1.500E-01 0.500 F -0.023 -0.439 +56° 49' 53.20" 1.000E-01 0.500 F 0.300 -0.512 o 691 1.37 Yes No
2009KD5 O C t 2010-06-01.32332 1.000E-05 16:58:28.160 1.500E-01 0.500 F -0.023 0.321 +13° 14' 06.90" 1.000E-01 0.500 F 0.146 -0.229 17.2 V 0.70 -0.14 o 691 0.79 Yes Yes
2009KD5 O C t 2010-06-01.34106 1.000E-05 16:58:24.650 1.500E-01 0.500 F -0.023 0.496 +13° 13' 59.40" 1.000E-01 0.500 F 0.146 -0.388 17.4 V 0.70 0.06 o 691 1.27 Yes Yes
2009KD5 O C t 2010-06-01.35878 1.000E-05 16:58:21.140 1.500E-01 0.500 F -0.023 0.601 +13° 13' 51.50" 1.000E-01 0.500 F 0.146 -0.856 17.4 V 0.70 0.06 o 691 2.10 Yes Yes
2001HZ7 O C H 2010-06-03.16970 1.000E-05 16:02:08.140 1.500E-01 0.500 F 0.069 -0.050 -07° 50' 24.80" 1.000E-01 0.500 F 0.110 -0.376 21.0 V 0.70 -0.20 o 691 0.77 Yes Yes
2001HZ7 O C H 2010-06-03.20501 1.000E-05 16:02:04.220 1.500E-01 0.500 F 0.069 -0.754 -07° 50' 25.00" 1.000E-01 0.500 F 0.110 -0.463 21.1 V 0.70 -0.10 o 691 1.78 Yes Yes
1998BB10 O C H 2010-06-03.23825 1.000E-05 16:55:16.560 1.500E-01 0.500 F 0.167 -0.029 +06° 19' 48.00" 1.000E-01 0.500 F 0.200 -0.532 o 691 1.07 Yes No
1998BB10 O C H 2010-06-03.27647 1.000E-05 16:55:10.860 1.500E-01 0.500 F 0.167 -0.701 +06° 20' 05.40" 1.000E-01 0.500 F 0.200 -0.256 o 691 1.50 Yes No
2010LG14 O C 2010-06-04.41192 1.000E-05 00:21:29.980 1.500E-01 0.500 F -0.057 -0.119 +28° 02' 32.50" 1.000E-01 0.500 F 0.230 -0.641 20.1 V 0.70 -0.07 o 691 1.32 Yes Yes
2010LG14 O C 2010-06-04.42464 1.000E-05 00:21:34.070 1.500E-01 0.500 F -0.057 -1.485 +28° 03' 09.00" 1.000E-01 0.500 F 0.230 -1.130 20.0 V 0.70 -0.16 o 691 3.67 No Yes
2010LG14 O C 2010-06-04.43734 1.000E-05 00:21:38.370 1.500E-01 0.500 F -0.057 0.037 +28° 03' 47.00" 1.000E-01 0.500 F 0.230 -0.056 20.6 V 0.70 0.44 o 691 0.13 Yes Yes
2010LJ14 O C 2010-06-05.22742 1.000E-05 16:27:15.880 1.500E-01 0.500 F 0.034 -0.924 +02° 12' 09.50" 1.000E-01 0.500 F 0.272 0.218 19.6 V 0.70 -0.31 o 691 1.90 Yes Yes
2010LJ14 O C 2010-06-05.24506 1.000E-05 16:27:14.390 1.500E-01 0.500 F 0.034 -0.242 +02° 12' 10.40" 1.000E-01 0.500 F 0.272 0.085 19.5 V 0.70 -0.41 o 691 0.51 Yes Yes
2010LJ14 O C 2010-06-05.26270 1.000E-05 16:27:12.860 1.500E-01 0.500 F 0.034 -0.137 +02° 12' 11.30" 1.000E-01 0.500 F 0.272 -0.038 19.6 V 0.70 -0.31 o 691 0.28 Yes Yes
2010LG14 O C 2010-06-05.40955 1.000E-05 00:27:05.310 1.500E-01 0.500 F -0.115 -0.543 +28° 50' 35.10" 1.000E-01 0.500 F 0.215 -0.365 20.2 V 0.70 0.06 o 691 1.34 Yes Yes
1999VO6 O C H 2010-06-05.41730 1.000E-05 00:17:58.830 1.500E-01 0.500 F -0.086 -0.310 +29° 33' 26.10" 1.000E-01 0.500 F 0.225 -0.251 21.0 V 0.70 -0.33 o 691 0.80 Yes Yes
2010LG14 O C 2010-06-05.42226 1.000E-05 00:27:09.700 1.500E-01 0.500 F -0.115 0.182 +28° 51' 12.70" 1.000E-01 0.500 F 0.215 0.231 20.2 V 0.70 0.06 o 691 0.60 Yes Yes
1999VO6 O C H 2010-06-05.43052 1.000E-05 00:18:00.070 1.500E-01 0.500 F -0.086 0.602 +29° 33' 36.20" 1.000E-01 0.500 F 0.225 0.155 21.3 V 0.70 -0.03 o 691 1.24 Yes Yes
2010LG14 O C 2010-06-05.43548 1.000E-05 00:27:14.200 1.500E-01 0.500 F -0.083 0.056 +28° 51' 51.40" 1.000E-01 0.500 F 0.201 0.464 20.1 V 0.70 -0.04 o 691 0.94 Yes Yes
Agni O C 2010-06-06.37439 1.000E-05 22:34:42.800 1.500E-01 0.500 F -0.083 0.149 +14° 03' 34.00" 1.000E-01 0.500 F 0.354 -0.307 20.5 V 0.70 0.38 o 691 0.68 Yes Yes
Agni O C 2010-06-06.39307 1.000E-05 22:34:45.380 1.500E-01 0.500 F -0.083 -0.214 +14° 03' 43.40" 1.000E-01 0.500 F 0.354 0.749 20.7 V 0.70 0.58 o 691 1.56 Yes Yes
Agni O C 2010-06-06.41173 1.000E-05 22:34:47.970 1.500E-01 0.500 F -0.083 -0.201 +14° 03' 50.70" 1.000E-01 0.500 F 0.354 -0.250 20.7 V 0.70 0.58 o 691 0.64 Yes Yes
2001HZ7 O C H 2010-06-07.17530 1.000E-05 15:55:25.500 1.500E-01 0.500 F 0.089 -0.249 -07° 52' 09.90" 1.000E-01 0.500 F 0.164 -0.273 21.2 V 0.70 -0.19 o 691 0.74 Yes Yes
1998BB10 O C t 2010-06-07.22381 1.000E-05 16:45:24.100 1.500E-01 0.500 F 0.247 -0.022 +06° 44' 56.30" 1.000E-01 0.500 F 0.222 -0.446 20.5 V 0.70 -0.04 o 691 0.90 Yes Yes
1998BB10 O C t 2010-06-07.24147 1.000E-05 16:45:21.250 1.500E-01 0.500 F 0.247 -0.012 +06° 45' 01.60" 1.000E-01 0.500 F 0.222 -0.663 o 691 1.33 Yes No
1998BB10 O C t 2010-06-07.25911 1.000E-05 16:45:18.390 1.500E-01 0.500 F 0.247 -0.114 +06° 45' 07.30" 1.000E-01 0.500 F 0.222 -0.441 o 691 0.92 Yes No
2010CL18 O C t 2010-06-08.27872 1.000E-05 17:24:15.710 1.500E-01 0.500 F 0.024 0.494 +26° 01' 55.00" 1.000E-01 0.500 F 0.229 -0.763 19.3 V 0.70 -0.10 o 691 1.84 Yes Yes
2010CL18 O C H 2010-06-08.29648 1.000E-05 17:24:14.810 1.500E-01 0.500 F 0.024 0.203 +26° 01' 33.40" 1.000E-01 0.500 F 0.229 -0.988 o 691 2.03 Yes No
2010CL18 O C t 2010-06-08.31425 1.000E-05 17:24:13.930 1.500E-01 0.500 F 0.024 0.211 +26° 01' 12.10" 1.000E-01 0.500 F 0.229 -0.825 19.5 V 0.70 0.10 o 691 1.72 Yes Yes
2010GX62 O C H 2010-06-10.28909 1.000E-05 17:22:03.980 1.500E-01 0.500 F 0.032 0.338 +18° 35' 35.00" 1.000E-01 0.500 F 0.205 0.009 21.5 V 0.70 -0.07 o 691 0.68 Yes Yes
Agni O C 2010-06-10.35391 1.000E-05 22:44:24.040 1.500E-01 0.500 F -0.081 -0.263 +14° 30' 32.80" 1.000E-01 0.500 F 0.322 -0.117 20.1 V 0.70 0.07 o 691 0.58 Yes Yes
Agni O C 2010-06-10.37252 1.000E-05 22:44:26.760 1.500E-01 0.500 F -0.081 -0.027 +14° 30' 41.20" 1.000E-01 0.500 F 0.322 0.580 19.6 V 0.70 -0.43 o 691 1.16 Yes Yes
2000PN9 O C H 2010-06-10.38068 1.000E-05 22:34:24.690 1.500E-01 0.500 F -0.090 -0.351 +22° 15' 36.30" 1.000E-01 0.500 F 0.270 -0.661 o 691 1.50 Yes No
Agni O C 2010-06-10.39111 1.000E-05 22:44:29.420 1.500E-01 0.500 F -0.081 -0.410 +14° 30' 48.10" 1.000E-01 0.500 F 0.322 -0.180 20.0 V 0.70 -0.03 o 691 0.90 Yes Yes
2000PN9 O C H 2010-06-11.34788 1.000E-05 22:34:56.090 1.500E-01 0.500 F -0.065 2.122 +22° 21' 21.90" 1.000E-01 0.500 F 0.225 -0.033 21.1 V 0.70 0.37 o 691 4.24 No Yes
1999WC2 O C 2010-06-11.35049 1.000E-05 22:40:08.700 1.500E-01 0.500 F -0.089 -0.285 +19° 56' 54.40" 1.000E-01 0.500 F 0.271 -0.056 20.7 V 0.70 0.24 o 691 0.58 Yes Yes
2000PN9 O C H 2010-06-11.36651 1.000E-05 22:34:56.540 1.500E-01 0.500 F -0.065 0.356 +22° 21' 28.00" 1.000E-01 0.500 F 0.225 -0.670 21.2 V 0.70 0.47 o 691 1.52 Yes Yes
1999WC2 O C 2010-06-11.36913 1.000E-05 22:40:08.760 1.500E-01 0.500 F -0.089 -0.249 +19° 57' 15.10" 1.000E-01 0.500 F 0.271 -0.123 20.3 V 0.70 -0.16 o 691 0.56 Yes Yes
2000PN9 O C H 2010-06-11.38516 1.000E-05 22:34:57.130 1.500E-01 0.500 F -0.065 0.570 +22° 21' 34.80" 1.000E-01 0.500 F 0.225 -0.603 21.4 V 0.70 0.67 o 691 1.66 Yes Yes
1999WC2 O C 2010-06-11.38777 1.000E-05 22:40:08.790 1.500E-01 0.500 F -0.089 -0.577 +19° 57' 36.00" 1.000E-01 0.500 F 0.271 0.022 20.2 V 0.70 -0.26 o 691 1.16 Yes Yes
1999VO6 O C H 2010-06-11.42522 1.000E-05 00:26:51.510 1.500E-01 0.500 F -0.039 0.140 +30° 46' 06.70" 1.000E-01 0.500 F 0.186 0.135 21.0 V 0.70 -0.26 o 691 0.39 Yes Yes
1999VO6 O C H 2010-06-11.43797 1.000E-05 00:26:52.610 1.500E-01 0.500 F -0.039 -0.054 +30° 46' 15.50" 1.000E-01 0.500 F 0.186 -0.479 21.0 V 0.70 -0.26 o 691 0.96 Yes Yes
2010CL18 O C H 2010-06-12.32473 1.000E-05 17:21:23.360 1.500E-01 0.500 F 0.036 -0.192 +24° 36' 21.60" 1.000E-01 0.500 F 0.189 -0.097 19.5 V 0.70 0.03 o 691 0.44 Yes Yes
2010CL18 O C H 2010-06-12.34245 1.000E-05 17:21:22.570 1.500E-01 0.500 F 0.036 0.187 +24° 35' 57.80" 1.000E-01 0.500 F 0.189 -0.348 o 691 0.80 Yes No
2010CL18 O C 2010-06-15.28918 1.000E-05 17:19:27.090 1.500E-01 0.500 F 0.019 -0.267 +23° 29' 07.60" 1.000E-01 0.500 F 0.188 -0.020 19.2 V 0.70 -0.34 o 691 0.54 Yes Yes
2010CL18 O C 2010-06-15.30694 1.000E-05 17:19:26.340 1.500E-01 0.500 F 0.019 -0.125 +23° 28' 43.00" 1.000E-01 0.500 F 0.188 0.160 19.2 V 0.70 -0.34 o 691 0.41 Yes Yes
2010CL18 O C 2010-06-15.32818 1.000E-05 17:19:25.430 1.500E-01 0.500 F 0.019 -0.152 +23° 28' 12.80" 1.000E-01 0.500 F 0.188 -0.320 19.2 V 0.70 -0.34 o 691 0.72 Yes Yes
1999VO6 O C H 2010-06-15.41729 1.000E-05 00:32:42.550 1.500E-01 0.500 F -0.081 0.153 +31° 34' 39.40" 1.000E-01 0.500 F 0.200 0.086 21.0 V 0.70 -0.21 o 691 0.35 Yes Yes
1999VO6 O C H 2010-06-15.43006 1.000E-05 00:32:43.660 1.500E-01 0.500 F -0.081 0.165 +31° 34' 48.70" 1.000E-01 0.500 F 0.200 -0.088 o 691 0.37 Yes No
1999VO6 O C H 2010-06-15.44284 1.000E-05 00:32:44.750 1.500E-01 0.500 F -0.081 -0.067 +31° 34' 58.00" 1.000E-01 0.500 F 0.200 -0.263 21.0 V 0.70 -0.21 o 691 0.54 Yes Yes
2010JF87 O C H 2010-06-17.35478 1.000E-05 14:25:11.780 1.500E-01 0.500 F 0.142 -0.035 +34° 53' 13.40" 1.000E-01 0.500 F 0.172 0.434 o 691 0.88 Yes No
2010JF87 O C H 2010-06-17.35882 1.000E-05 14:25:12.230 1.500E-01 0.500 F 0.142 0.525 +34° 53' 02.40" 1.000E-01 0.500 F 0.172 -0.148 21.2 V 0.70 -0.07 o 691 1.11 Yes Yes
2010JF87 O C H 2010-06-17.36358 1.000E-05 14:25:12.410 1.500E-01 0.500 F 0.142 -3.130 +34° 52' 49.70" 1.000E-01 0.500 F 0.172 -0.573 20.7 V 0.70 -0.57 o 691 6.29 No Yes
1998MT24 O C H 2010-06-17.41958 1.000E-05 00:00:16.470 1.500E-01 0.500 F -0.018 -0.413 +26° 11' 15.80" 1.000E-01 0.500 F 0.221 0.191 21.4 V 0.70 0.34 o 691 0.91 Yes Yes
2006BN6 O C H 2010-06-17.42207 1.000E-05 00:06:49.570 1.500E-01 0.500 F -0.074 -0.527 +26° 22' 07.90" 1.000E-01 0.500 F 0.235 -0.240 19.6 V 0.70 0.81 o 691 1.16 Yes Yes
1998MT24 O C H 2010-06-17.43227 1.000E-05 00:00:16.740 1.500E-01 0.500 F -0.018 0.091 +26° 11' 23.90" 1.000E-01 0.500 F 0.221 -0.444 21.5 V 0.70 0.44 o 691 0.91 Yes Yes
2006BN6 O C H 2010-06-17.43476 1.000E-05 00:06:49.140 1.500E-01 0.500 F -0.074 -0.329 +26° 22' 27.00" 1.000E-01 0.500 F 0.235 0.107 19.6 V 0.70 0.81 o 691 0.70 Yes Yes
1998MT24 O C H 2010-06-17.44496 1.000E-05 00:00:16.980 1.500E-01 0.500 F -0.018 0.203 +26° 11' 33.20" 1.000E-01 0.500 F 0.221 0.126 21.4 V 0.70 0.34 o 691 0.48 Yes Yes
2006BN6 O C H 2010-06-17.44744 1.000E-05 00:06:48.690 1.500E-01 0.500 F -0.074 -0.341 +26° 22' 45.80" 1.000E-01 0.500 F 0.235 0.197 19.5 V 0.70 0.71 o 691 0.79 Yes Yes
2010LT108 O C 2010-06-19.26244 1.000E-05 18:33:16.790 1.500E-01 0.500 F 0.078 0.100 +63° 13' 31.70" 1.000E-01 0.500 F 0.165 0.586 21.1 V 0.70 0.11 o 691 1.21 Yes Yes
2010LT108 O C 2010-06-19.26608 1.000E-05 18:33:16.250 1.500E-01 0.500 F 0.078 -0.086 +63° 13' 24.70" 1.000E-01 0.500 F 0.165 -0.111 20.8 V 0.70 -0.19 o 691 0.29 Yes Yes
2010LT108 O C 2010-06-19.26961 1.000E-05 18:33:15.740 1.500E-01 0.500 F 0.078 -0.170 +63° 13' 18.50" 1.000E-01 0.500 F 0.165 -0.193 20.9 V 0.70 -0.09 o 691 0.53 Yes Yes
2010FY80 O C H 2010-06-19.27876 1.000E-05 12:50:08.220 1.500E-01 0.500 F 0.249 -0.281 +40° 39' 05.30" 1.000E-01 0.500 F 0.207 -0.125 20.9 V 0.70 0.14 o 691 0.63 Yes Yes
2010FY80 O C H 2010-06-19.28231 1.000E-05 12:50:09.470 1.500E-01 0.500 F 0.249 -1.019 +40° 39' 00.70" 1.000E-01 0.500 F 0.207 0.385 21.1 V 0.70 0.34 o 691 2.22 Yes Yes
2010FY80 O C H 2010-06-19.28568 1.000E-05 12:50:10.910 1.500E-01 0.500 F 0.249 1.158 +40° 38' 55.20" 1.000E-01 0.500 F 0.207 -0.262 21.1 V 0.70 0.34 o 691 2.43 Yes Yes
2010JF87 O C H 2010-06-19.28966 1.000E-05 14:28:26.510 1.500E-01 0.500 F 0.083 -0.378 +33° 31' 44.70" 1.000E-01 0.500 F 0.178 0.527 21.1 V 0.70 -0.22 o 691 1.32 Yes Yes
2010CL18 O C 2010-06-19.31194 1.000E-05 17:17:06.120 1.500E-01 0.500 F 0.006 -0.217 +21° 52' 48.30" 1.000E-01 0.500 F 0.205 -0.146 19.3 V 0.70 -0.33 o 691 0.53 Yes Yes
2010CL18 O C 2010-06-19.32718 1.000E-05 17:17:05.570 1.500E-01 0.500 F 0.006 -0.002 +21° 52' 25.40" 1.000E-01 0.500 F 0.205 -0.502 19.0 V 0.70 -0.63 o 691 1.01 Yes Yes
2010CL18 O C 2010-06-19.34241 1.000E-05 17:17:05.000 1.500E-01 0.500 F 0.006 -0.102 +21° 52' 03.20" 1.000E-01 0.500 F 0.205 -0.133 19.3 V 0.70 -0.33 o 691 0.34 Yes Yes
1992JB O C H 2010-06-22.37724 1.000E-05 23:37:06.740 1.500E-01 0.500 F -0.127 -0.706 +16° 08' 26.00" 1.000E-01 0.500 F 0.302 0.352 21.5 V 0.70 -0.64 o 691 1.58 Yes Yes
1992JB O C H 2010-06-22.39323 1.000E-05 23:37:07.540 1.500E-01 0.500 F -0.127 0.244 +16° 08' 36.20" 1.000E-01 0.500 F 0.302 0.517 21.3 V 0.70 -0.84 o 691 1.15 Yes Yes
1992JB O C H 2010-06-22.40918 1.000E-05 23:37:08.200 1.500E-01 0.500 F -0.127 -0.758 +16° 08' 46.20" 1.000E-01 0.500 F 0.302 0.515 21.6 V 0.70 -0.54 o 691 1.84 Yes Yes
2010HD33 O C H 2010-06-23.18597 1.000E-05 12:00:29.070 1.500E-01 0.500 F 0.126 -0.703 +29° 45' 16.00" 1.000E-01 0.500 F 0.228 0.055 20.6 V 0.70 -0.20 o 691 1.44 Yes Yes
2010HD33 O C H 2010-06-23.18911 1.000E-05 12:00:29.840 1.500E-01 0.500 F 0.126 0.467 +29° 45' 14.10" 1.000E-01 0.500 F 0.228 0.265 20.7 V 0.70 -0.10 o 691 1.09 Yes Yes
2010HD33 O C H 2010-06-23.19275 1.000E-05 12:00:30.520 1.500E-01 0.500 F 0.126 -0.948 +29° 45' 11.80" 1.000E-01 0.500 F 0.228 0.413 20.4 V 0.70 -0.40 o 691 2.11 Yes Yes
2010JF87 O C H 2010-06-23.21615 1.000E-05 14:34:47.510 1.500E-01 0.500 F 0.168 -1.374 +30° 50' 57.90" 1.000E-01 0.500 F 0.130 0.857 20.9 V 0.70 -0.54 o 691 3.20 No Yes
2010JF87 O C H 2010-06-23.21898 1.000E-05 14:34:47.830 1.500E-01 0.500 F 0.168 -0.575 +30° 50' 50.10" 1.000E-01 0.500 F 0.130 -0.100 21.0 V 0.70 -0.44 o 691 1.18 Yes Yes
2010JF87 O C H 2010-06-23.22181 1.000E-05 14:34:48.100 1.500E-01 0.500 F 0.168 -0.420 +30° 50' 42.60" 1.000E-01 0.500 F 0.130 -0.756 21.0 V 0.70 -0.44 o 691 1.75 Yes Yes
2010LT108 O C H 2010-06-23.25988 1.000E-05 18:25:04.620 1.500E-01 0.500 F 0.052 0.162 +61° 10' 27.40" 1.000E-01 0.500 F 0.188 -0.193 20.7 V 0.70 -0.29 o 691 0.52 Yes Yes
2010LT108 O C H 2010-06-23.26308 1.000E-05 18:25:04.310 1.500E-01 0.500 F 0.052 0.813 +61° 10' 22.00" 1.000E-01 0.500 F 0.188 0.510 20.8 V 0.70 -0.19 o 691 1.96 Yes Yes
2010LT108 O C H 2010-06-23.26594 1.000E-05 18:25:03.840 1.500E-01 0.500 F 0.052 0.001 +61° 10' 16.50" 1.000E-01 0.500 F 0.188 0.468 21.0 V 0.70 0.01 o 691 0.95 Yes Yes
2010JG87 O C H 2010-06-23.34201 1.000E-05 17:18:58.840 1.500E-01 0.500 F 0.029 1.751 +08° 00' 59.90" 1.000E-01 0.500 F 0.164 -0.545 20.7 V 0.70 -0.48 o 691 3.63 No Yes
2010JG87 O C H 2010-06-23.34526 1.000E-05 17:18:58.180 1.500E-01 0.500 F 0.029 -0.201 +08° 00' 56.90" 1.000E-01 0.500 F 0.164 -0.488 21.1 V 0.70 -0.08 o 691 1.07 Yes Yes
2010JG87 O C H 2010-06-23.34883 1.000E-05 17:18:57.560 1.500E-01 0.500 F 0.029 -0.789 +08° 00' 54.10" 1.000E-01 0.500 F 0.164 0.070 21.0 V 0.70 -0.18 o 691 1.60 Yes Yes
2010EX119 O C H 2010-06-23.41990 1.000E-05 01:13:52.370 1.500E-01 0.500 F -0.013 0.593 +53° 01' 15.50" 1.000E-01 0.500 F 0.184 -0.393 o 691 1.45 Yes No
2010EX119 O C H 2010-06-23.42268 1.000E-05 01:13:51.680 1.500E-01 0.500 F -0.013 0.897 +53° 01' 13.00" 1.000E-01 0.500 F 0.184 -0.428 o 691 2.03 Yes No
2010EX119 O C H 2010-06-23.42544 1.000E-05 01:13:50.980 1.500E-01 0.500 F -0.013 1.070 +53° 01' 10.80" 1.000E-01 0.500 F 0.184 -0.179 o 691 2.23 Yes No
1999YT O C 2010-07-04.19486 1.000E-05 13:43:38.420 1.500E-01 0.500 F 0.221 0.040 +26° 32' 53.30" 1.000E-01 0.500 F 0.148 -0.666 20.3 V 0.70 -1.36 o 691 1.34 Yes Yes
2010FO92 O C 2010-07-04.21139 1.000E-05 13:21:29.640 1.500E-01 0.500 F 0.171 -0.264 +17° 33' 38.00" 1.000E-01 0.500 F 0.227 0.011 20.0 V 0.70 -0.03 o 691 0.53 Yes Yes
1999YT O C 2010-07-04.22490 1.000E-05 13:43:39.020 1.500E-01 0.500 F 0.221 -0.466 +26° 32' 22.70" 1.000E-01 0.500 F 0.148 -0.027 21.0 V 0.70 -0.66 o 691 0.94 Yes Yes
2010FO92 O C 2010-07-04.23796 1.000E-05 13:21:32.990 1.500E-01 0.500 F 0.171 -0.240 +17° 33' 27.20" 1.000E-01 0.500 F 0.227 -0.078 20.0 V 0.70 -0.03 o 691 0.51 Yes Yes
1999YT O C 2010-07-04.25148 1.000E-05 13:43:39.590 1.500E-01 0.500 F 0.221 -0.477 +26° 31' 55.00" 1.000E-01 0.500 F 0.148 -0.052 21.0 V 0.70 -0.66 o 691 0.96 Yes Yes
2010FO92 O C 2010-07-04.26455 1.000E-05 13:21:36.380 1.500E-01 0.500 F 0.171 -0.304 +17° 33' 16.30" 1.000E-01 0.500 F 0.227 -0.123 20.0 V 0.70 -0.03 o 691 0.66 Yes Yes
2001LC O C H 2010-07-04.41513 1.000E-05 21:40:12.250 1.500E-01 0.500 F -0.130 0.128 -18° 50' 33.30" 1.000E-01 0.500 F 0.138 -0.050 21.2 V 0.70 0.08 o 691 0.28 Yes Yes
2001LC O C H 2010-07-04.43286 1.000E-05 21:40:10.710 1.500E-01 0.500 F -0.130 -0.136 -18° 50' 53.30" 1.000E-01 0.500 F 0.138 0.136 20.9 V 0.70 -0.22 o 691 0.39 Yes Yes
1999YT O C H 2010-07-05.18557 1.000E-05 13:44:01.350 1.500E-01 0.500 F 0.203 -0.090 +26° 15' 47.80" 1.000E-01 0.500 F 0.108 -0.987 o 691 1.99 Yes No
2002MP3 O C 2010-07-05.18818 1.000E-05 13:42:25.100 1.500E-01 0.500 F 0.160 -0.361 +24° 30' 53.50" 1.000E-01 0.500 F 0.083 0.339 21.5 V 0.70 -0.06 o 691 0.99 Yes Yes
2010FO92 O C H 2010-07-05.19866 1.000E-05 13:23:43.130 1.500E-01 0.500 F 0.153 -0.373 +17° 27' 25.10" 1.000E-01 0.500 F 0.239 -0.467 o 691 1.21 Yes No
1999YT O C H 2010-07-05.21754 1.000E-05 13:44:02.050 1.500E-01 0.500 F 0.203 -0.380 +26° 15' 15.60" 1.000E-01 0.500 F 0.108 0.123 o 691 0.80 Yes No
2002MP3 O C 2010-07-05.22017 1.000E-05 13:42:25.380 1.500E-01 0.500 F 0.160 -0.331 +24° 30' 23.90" 1.000E-01 0.500 F 0.083 -0.154 21.6 V 0.70 0.04 o 691 0.73 Yes Yes
2010FO92 O C H 2010-07-05.23065 1.000E-05 13:23:47.290 1.500E-01 0.500 F 0.153 -0.287 +17° 27' 12.00" 1.000E-01 0.500 F 0.239 0.038 o 691 0.58 Yes No
2002MP3 O C 2010-07-05.25216 1.000E-05 13:42:25.660 1.500E-01 0.500 F 0.160 -0.405 +24° 29' 55.40" 1.000E-01 0.500 F 0.083 0.492 21.5 V 0.70 -0.06 o 691 1.27 Yes Yes
1999YT O C H 2010-07-06.18359 1.000E-05 13:44:25.800 1.500E-01 0.500 F 0.203 -0.249 +25° 58' 33.60" 1.000E-01 0.500 F 0.108 -0.145 21.2 V 0.70 -0.48 o 691 0.58 Yes Yes
2002MP3 O C H 2010-07-06.18620 1.000E-05 13:42:35.480 1.500E-01 0.500 F 0.148 -0.282 +24° 15' 48.30" 1.000E-01 0.500 F 0.124 -0.135 o 691 0.63 Yes No
2010FO92 O C 2010-07-06.19665 1.000E-05 13:26:02.430 1.500E-01 0.500 F 0.153 -0.449 +17° 20' 44.70" 1.000E-01 0.500 F 0.239 0.066 20.0 V 0.70 0.00 o 691 0.92 Yes Yes
1999YT O C H 2010-07-06.21285 1.000E-05 13:44:26.530 1.500E-01 0.500 F 0.203 0.154 +25° 58' 03.10" 1.000E-01 0.500 F 0.108 -0.098 21.2 V 0.70 -0.48 o 691 0.36 Yes Yes
2002MP3 O C H 2010-07-06.21546 1.000E-05 13:42:35.780 1.500E-01 0.500 F 0.148 -0.194 +24° 15' 20.90" 1.000E-01 0.500 F 0.124 -0.821 o 691 1.69 Yes No
2010FO92 O C 2010-07-06.22590 1.000E-05 13:26:06.350 1.500E-01 0.500 F 0.138 -0.502 +17° 20' 31.40" 1.000E-01 0.500 F 0.193 -0.035 19.9 V 0.70 -0.10 o 691 1.02 Yes Yes
2002MP3 O C H 2010-07-06.24473 1.000E-05 13:42:36.050 1.500E-01 0.500 F 0.148 -0.604 +24° 14' 55.40" 1.000E-01 0.500 F 0.124 0.433 o 691 1.49 Yes No
2010FO92 O C 2010-07-06.25517 1.000E-05 13:26:10.340 1.500E-01 0.500 F 0.138 -0.350 +17° 20' 18.40" 1.000E-01 0.500 F 0.193 0.309 20.1 V 0.70 0.10 o 691 0.94 Yes Yes
1998MT24 O C H 2010-07-06.38590 1.000E-05 00:03:07.390 1.500E-01 0.500 F -0.100 -0.363 +29° 39' 48.80" 1.000E-01 0.500 F 0.193 0.076 21.2 V 0.70 0.21 o 691 0.74 Yes Yes
1998MT24 O C H 2010-07-06.42309 1.000E-05 00:03:07.370 1.500E-01 0.500 F -0.100 0.616 +29° 40' 11.40" 1.000E-01 0.500 F 0.193 -0.896 o 691 2.18 Yes No
2002MP3 O C H 2010-07-07.18649 1.000E-05 13:42:47.280 1.500E-01 0.500 F 0.148 0.518 +24° 00' 38.80" 1.000E-01 0.500 F 0.124 0.291 21.7 V 0.70 0.13 o 691 1.19 Yes Yes
2002MC O C 2010-07-07.19695 1.000E-05 13:33:56.020 1.500E-01 0.500 F 0.012 -0.858 +15° 46' 28.40" 1.000E-01 0.500 F 0.103 -0.457 20.8 V 0.70 0.22 o 691 1.96 Yes Yes
2002MP3 O C H 2010-07-07.22111 1.000E-05 13:42:47.640 1.500E-01 0.500 F 0.148 0.036 +24° 00' 06.50" 1.000E-01 0.500 F 0.124 -0.294 o 691 0.59 Yes No
2002MC O C 2010-07-07.23156 1.000E-05 13:33:57.890 1.500E-01 0.500 F 0.012 -0.135 +15° 46' 01.80" 1.000E-01 0.500 F 0.103 0.485 20.8 V 0.70 0.22 o 691 1.01 Yes Yes
2002MP3 O C H 2010-07-07.25574 1.000E-05 13:42:48.040 1.500E-01 0.500 F 0.148 -0.023 +23° 59' 34.40" 1.000E-01 0.500 F 0.124 -0.627 21.5 V 0.70 -0.07 o 691 1.26 Yes Yes
2002MC O C 2010-07-07.26620 1.000E-05 13:33:59.730 1.500E-01 0.500 F 0.012 -0.106 +15° 45' 33.80" 1.000E-01 0.500 F 0.103 0.106 21.1 V 0.70 0.52 o 691 0.30 Yes Yes
2010NG1 O C 2010-07-08.30025 1.000E-05 16:31:10.530 1.500E-01 0.500 F 0.051 -0.407 +59° 18' 53.20" 1.000E-01 0.500 F 0.103 -0.036 20.5 V 0.70 -0.66 o 691 0.84 Yes Yes
2010NG1 O C 2010-07-08.30635 1.000E-05 16:31:09.820 1.500E-01 0.500 F 0.051 -0.449 +59° 18' 39.20" 1.000E-01 0.500 F 0.103 0.119 20.6 V 0.70 -0.56 o 691 0.95 Yes Yes
2010NG1 O C 2010-07-08.31180 1.000E-05 16:31:09.200 1.500E-01 0.500 F 0.051 -0.391 +59° 18' 26.20" 1.000E-01 0.500 F 0.103 -0.219 20.5 V 0.70 -0.66 o 691 0.92 Yes Yes
2010NW117 O C 2010-07-08.31989 1.000E-05 21:17:09.350 1.500E-01 0.500 F -0.078 0.065 -10° 23' 10.20" 1.000E-01 0.500 F 0.217 -0.044 20.5 V 0.70 0.32 o 691 0.16 Yes Yes
2010NW117 O C 2010-07-08.33005 1.000E-05 21:17:09.120 1.500E-01 0.500 F -0.078 -0.421 -10° 23' 07.50" 1.000E-01 0.500 F 0.217 0.460 20.3 V 0.70 0.12 o 691 1.25 Yes Yes
2010NW117 O C 2010-07-08.34024 1.000E-05 21:17:08.930 1.500E-01 0.500 F -0.078 -0.289 -10° 23' 05.60" 1.000E-01 0.500 F 0.217 0.153 20.2 V 0.70 0.02 o 691 0.66 Yes Yes
2001LC O C t 2010-07-08.36474 1.000E-05 21:34:12.830 1.500E-01 0.500 F -0.296 0.417 -20° 09' 24.60" 1.000E-01 0.500 F 0.090 -0.244 o 691 0.97 Yes No
2008LW8 O C 2010-08-03.16379 1.000E-05 15:12:51.320 1.500E-01 0.500 F 0.085 0.463 +17° 11' 48.00" 1.000E-01 0.500 F 0.168 -0.159 19.0 V 0.70 0.38 o 691 0.98 Yes Yes
2008LW8 O C 2010-08-03.18242 1.000E-05 15:12:52.690 1.500E-01 0.500 F 0.085 -0.245 +17° 11' 52.10" 1.000E-01 0.500 F 0.168 0.017 19.1 V 0.70 0.48 o 691 0.49 Yes Yes
2008LW8 O C 2010-08-03.20105 1.000E-05 15:12:54.120 1.500E-01 0.500 F 0.085 -0.217 +17° 11' 55.80" 1.000E-01 0.500 F 0.168 -0.158 19.1 V 0.70 0.48 o 691 0.54 Yes Yes
2010OL101 O C 2010-08-03.22957 1.000E-05 17:37:37.530 1.500E-01 0.500 F 0.015 -0.079 +54° 51' 07.00" 1.000E-01 0.500 F 0.234 0.139 20.5 V 0.70 -0.02 o 691 0.33 Yes Yes
2010OL101 O C 2010-08-03.23264 1.000E-05 17:37:38.720 1.500E-01 0.500 F 0.015 0.037 +54° 50' 58.60" 1.000E-01 0.500 F 0.234 0.101 20.3 V 0.70 -0.22 o 691 0.22 Yes Yes
2010OL101 O C 2010-08-03.23622 1.000E-05 17:37:40.080 1.500E-01 0.500 F 0.015 -0.069 +54° 50' 48.80" 1.000E-01 0.500 F 0.234 0.060 20.6 V 0.70 0.08 o 691 0.19 Yes Yes
2010OL100 O C 2010-08-03.27212 1.000E-05 15:54:49.050 1.500E-01 0.500 F 0.083 -0.588 +54° 23' 59.90" 1.000E-01 0.500 F 0.274 0.454 19.8 V 0.70 -0.53 o 691 1.52 Yes Yes
2010OL100 O C 2010-08-03.27563 1.000E-05 15:54:47.930 1.500E-01 0.500 F 0.083 -0.441 +54° 24' 06.90" 1.000E-01 0.500 F 0.274 0.295 20.0 V 0.70 -0.33 o 691 1.08 Yes Yes
2010OL100 O C 2010-08-03.27928 1.000E-05 15:54:46.770 1.500E-01 0.500 F 0.083 -0.255 +54° 24' 14.20" 1.000E-01 0.500 F 0.274 0.154 20.0 V 0.70 -0.33 o 691 0.61 Yes Yes
2010ON101 O C 2010-08-04.18524 1.000E-05 16:20:53.240 1.500E-01 0.500 F 0.145 -0.713 +29° 41' 48.50" 1.000E-01 0.500 F 0.209 0.028 19.2 V 0.70 -0.10 o 691 1.45 Yes Yes
2000DH8 O C 2010-08-04.18524 1.000E-05 16:23:39.860 1.500E-01 0.500 F 0.101 -0.771 +30° 28' 08.20" 1.000E-01 0.500 F 0.224 -0.348 21.7 V 0.70 0.25 o 691 1.69 Yes Yes
2010ON101 O C 2010-08-04.18835 1.000E-05 16:20:55.000 1.500E-01 0.500 F 0.145 -0.152 +29° 41' 47.10" 1.000E-01 0.500 F 0.209 -0.139 19.3 V 0.70 0.00 o 691 0.42 Yes Yes
2000DH8 O C 2010-08-04.18835 1.000E-05 16:23:40.120 1.500E-01 0.500 F 0.101 -0.574 +30° 28' 00.90" 1.000E-01 0.500 F 0.224 -1.183 21.0 V 0.70 -0.45 o 691 2.63 Yes Yes
2010ON101 O C 2010-08-04.19117 1.000E-05 16:20:56.540 1.500E-01 0.500 F 0.145 -0.376 +29° 41' 46.10" 1.000E-01 0.500 F 0.209 -0.013 19.2 V 0.70 -0.10 o 691 0.77 Yes Yes
2000DH8 O C 2010-08-04.19117 1.000E-05 16:23:40.310 1.500E-01 0.500 F 0.101 -0.987 +30° 27' 56.00" 1.000E-01 0.500 F 0.224 -0.219 20.9 V 0.70 -0.55 o 691 2.03 Yes Yes
2010OL101 O C 2010-08-04.21490 1.000E-05 17:44:08.180 1.500E-01 0.500 F 0.034 -0.207 +54° 05' 34.20" 1.000E-01 0.500 F 0.233 0.952 20.0 V 0.70 -0.48 o 691 2.01 Yes Yes
2010OL101 O C 2010-08-04.21782 1.000E-05 17:44:09.300 1.500E-01 0.500 F 0.034 -0.127 +54° 05' 24.70" 1.000E-01 0.500 F 0.233 -0.125 20.0 V 0.70 -0.48 o 691 0.37 Yes Yes
2010OL101 O C 2010-08-04.22142 1.000E-05 17:44:10.600 1.500E-01 0.500 F 0.034 -0.742 +54° 05' 14.80" 1.000E-01 0.500 F 0.233 0.369 20.0 V 0.70 -0.48 o 691 1.71 Yes Yes
2010OL100 O C H 2010-08-05.16149 1.000E-05 15:44:30.890 1.500E-01 0.500 F 0.124 -1.241 +55° 29' 40.90" 1.000E-01 0.500 F 0.225 0.260 20.6 V 0.70 0.25 o 691 2.58 Yes Yes
2010OL100 O C H 2010-08-05.16433 1.000E-05 15:44:30.040 1.500E-01 0.500 F 0.124 0.002 +55° 29' 46.40" 1.000E-01 0.500 F 0.225 0.066 20.9 V 0.70 0.55 o 691 0.14 Yes Yes
2010NG1 O C 2010-08-05.18664 1.000E-05 16:13:21.630 1.500E-01 0.500 F 0.088 -0.332 +37° 48' 07.00" 1.000E-01 0.500 F 0.228 -0.421 20.9 V 0.70 -0.14 o 691 1.09 Yes Yes
2010NG1 O C 2010-08-05.18954 1.000E-05 16:13:21.680 1.500E-01 0.500 F 0.088 0.192 +37° 47' 57.70" 1.000E-01 0.500 F 0.228 -0.272 21.1 V 0.70 0.06 o 691 0.67 Yes Yes
2010NG1 O C 2010-08-05.19311 1.000E-05 16:13:21.590 1.500E-01 0.500 F 0.088 -0.964 +37° 47' 45.40" 1.000E-01 0.500 F 0.228 -0.935 20.4 V 0.70 -0.64 o 691 2.73 Yes Yes
2010OL101 O C t 2010-08-05.21573 1.000E-05 17:50:42.070 1.500E-01 0.500 F 0.062 0.098 +53° 16' 20.30" 1.000E-01 0.500 F 0.197 -0.595 21.5 V 0.70 1.06 o 691 1.24 Yes Yes
2010OL101 O C t 2010-08-05.21861 1.000E-05 17:50:43.160 1.500E-01 0.500 F 0.062 0.122 +53° 16' 12.00" 1.000E-01 0.500 F 0.197 -0.075 20.4 V 0.70 -0.04 o 691 0.29 Yes Yes
2010OL101 O C t 2010-08-05.22159 1.000E-05 17:50:44.280 1.500E-01 0.500 F 0.062 0.074 +53° 16' 02.30" 1.000E-01 0.500 F 0.197 -0.641 20.5 V 0.70 0.06 o 691 1.33 Yes Yes
2010OE22 O C t 2010-08-05.24894 1.000E-05 18:36:25.660 1.500E-01 0.500 F 0.065 0.565 +32° 33' 39.80" 1.000E-01 0.500 F 0.277 -1.243 21.1 V 0.70 0.62 o 691 2.89 Yes Yes
2010OE22 O C t 2010-08-05.25187 1.000E-05 18:36:26.620 1.500E-01 0.500 F 0.065 0.013 +32° 33' 26.10" 1.000E-01 0.500 F 0.277 -0.677 20.7 V 0.70 0.22 o 691 1.43 Yes Yes
2010OD101 O C H 2010-08-05.33092 1.000E-05 01:06:03.930 1.500E-01 0.500 F 0.016 -0.059 +45° 13' 53.00" 1.000E-01 0.500 F 0.244 0.510 20.9 V 0.70 0.08 o 691 1.05 Yes Yes
2010OD101 O C H 2010-08-05.33388 1.000E-05 01:06:04.350 1.500E-01 0.500 F 0.016 0.163 +45° 13' 47.90" 1.000E-01 0.500 F 0.244 0.320 21.2 V 0.70 0.38 o 691 0.73 Yes Yes
2010JM151 O C 2010-08-05.41031 1.000E-05 03:36:47.450 1.500E-01 0.500 F -0.087 0.015 +40° 27' 52.40" 1.000E-01 0.500 F 0.207 0.177 20.9 V 0.70 0.35 o 691 0.38 Yes Yes
2010JM151 O C 2010-08-05.41313 1.000E-05 03:36:47.460 1.500E-01 0.500 F -0.087 0.020 +40° 27' 59.60" 1.000E-01 0.500 F 0.207 0.046 20.7 V 0.70 0.15 o 691 0.11 Yes Yes
2010JM151 O C 2010-08-05.41593 1.000E-05 03:36:47.450 1.500E-01 0.500 F -0.087 -0.197 +40° 28' 06.20" 1.000E-01 0.500 F 0.207 -0.630 20.8 V 0.70 0.25 o 691 1.37 Yes Yes
2010OF101 O C 2010-08-06.18533 1.000E-05 15:59:01.410 1.500E-01 0.500 F 0.129 -0.072 +30° 32' 41.90" 1.000E-01 0.500 F 0.176 -0.017 21.0 V 0.70 -0.04 o 691 0.15 Yes Yes
2010OF101 O C 2010-08-06.18811 1.000E-05 15:59:01.700 1.500E-01 0.500 F 0.129 -0.387 +30° 32' 36.70" 1.000E-01 0.500 F 0.176 -0.484 20.6 V 0.70 -0.44 o 691 1.25 Yes Yes
2010OF101 O C 2010-08-06.19089 1.000E-05 15:59:02.050 1.500E-01 0.500 F 0.129 0.071 +30° 32' 32.40" 1.000E-01 0.500 F 0.176 -0.049 20.8 V 0.70 -0.24 o 691 0.17 Yes Yes
2010JE O C t 2010-08-06.20195 1.000E-05 14:26:34.380 1.500E-01 0.500 F 0.076 0.447 +42° 48' 31.70" 1.000E-01 0.500 F 0.353 0.106 21.1 V 0.70 0.41 o 691 0.99 Yes Yes
2010JE O C t 2010-08-06.20524 1.000E-05 14:26:35.350 1.500E-01 0.500 F 0.076 0.132 +42° 48' 42.10" 1.000E-01 0.500 F 0.353 -0.503 21.1 V 0.70 0.41 o 691 1.11 Yes Yes
2010JE O C t 2010-08-06.20891 1.000E-05 14:26:36.500 1.500E-01 0.500 F 0.076 0.516 +42° 48' 54.70" 1.000E-01 0.500 F 0.353 -0.178 20.5 V 0.70 -0.19 o 691 1.16 Yes Yes
2010OL101 O C t 2010-08-06.22760 1.000E-05 17:57:16.840 1.500E-01 0.500 F 0.091 0.298 +52° 23' 31.80" 1.000E-01 0.500 F 0.204 -0.299 20.5 V 0.70 0.10 o 691 0.87 Yes Yes
2010OL101 O C t 2010-08-06.23046 1.000E-05 17:57:17.920 1.500E-01 0.500 F 0.091 0.383 +52° 23' 22.20" 1.000E-01 0.500 F 0.204 -0.594 20.3 V 0.70 -0.10 o 691 1.45 Yes Yes
2010EX119 O C H 2010-08-06.33257 1.000E-05 23:33:39.870 1.500E-01 0.500 F -0.034 0.177 +40° 47' 57.10" 1.000E-01 0.500 F 0.200 0.089 20.3 V 0.70 0.09 o 691 0.40 Yes Yes
2010EX119 O C H 2010-08-06.33544 1.000E-05 23:33:39.450 1.500E-01 0.500 F -0.034 -0.173 +40° 47' 52.60" 1.000E-01 0.500 F 0.200 -0.361 20.3 V 0.70 0.09 o 691 0.81 Yes Yes
2010OK126 O C H 2010-08-06.44834 1.000E-05 02:48:52.570 1.500E-01 0.500 F -0.225 -0.008 -08° 33' 39.40" 1.000E-01 0.500 F 0.144 -0.688 o 691 1.41 Yes No
2010OK126 O C H 2010-08-06.45116 1.000E-05 02:48:52.020 1.500E-01 0.500 F -0.225 0.153 -08° 33' 22.40" 1.000E-01 0.500 F 0.144 0.541 o 691 1.15 Yes No
2010PD57 O C 2010-08-10.21702 1.000E-05 21:52:42.480 1.500E-01 0.500 F 0.063 0.364 -04° 30' 47.20" 1.000E-01 0.500 F 0.297 0.011 20.4 V 0.70 -0.32 o 691 0.74 Yes Yes
2010PD57 O C 2010-08-10.23463 1.000E-05 21:52:43.000 1.500E-01 0.500 F 0.063 -0.130 -04° 30' 01.50" 1.000E-01 0.500 F 0.297 -0.065 20.7 V 0.70 -0.02 o 691 0.30 Yes Yes
2010PD57 O C 2010-08-10.25223 1.000E-05 21:52:43.510 1.500E-01 0.500 F 0.063 -0.545 -04° 29' 15.40" 1.000E-01 0.500 F 0.297 0.244 20.7 V 0.70 -0.02 o 691 1.21 Yes Yes
2010XT45 O C 2010-08-10.44494 1.000E-05 04:39:45.650 1.500E-01 0.500 F -0.154 -0.384 +19° 15' 52.20" 1.000E-01 0.500 F 0.201 0.154 o 691 0.83 Yes No
2006GZ O C H 2010-08-10.44739 1.000E-05 04:46:48.140 1.500E-01 0.500 F -0.220 -0.774 +19° 41' 16.80" 1.000E-01 0.500 F 0.140 -0.688 21.5 V 0.70 -0.25 o 691 2.08 Yes Yes
2010XT45 O C 2010-08-10.45757 1.000E-05 04:39:47.280 1.500E-01 0.500 F -0.154 -0.545 +19° 15' 50.20" 1.000E-01 0.500 F 0.201 0.230 o 691 1.19 Yes No
2006GZ O C H 2010-08-10.46004 1.000E-05 04:46:50.370 1.500E-01 0.500 F -0.220 0.451 +19° 41' 32.20" 1.000E-01 0.500 F 0.140 0.784 21.2 V 0.70 -0.55 o 691 1.81 Yes Yes
2010XT45 O C 2010-08-10.47022 1.000E-05 04:39:48.930 1.500E-01 0.500 F -0.154 -0.433 +19° 15' 48.40" 1.000E-01 0.500 F 0.201 0.517 o 691 1.35 Yes No
2006GZ O C H 2010-08-10.47269 1.000E-05 04:46:52.580 1.500E-01 0.500 F -0.220 1.436 +19° 41' 43.30" 1.000E-01 0.500 F 0.140 -2.034 21.3 V 0.70 -0.45 o 691 4.97 No Yes
2010OL101 O C t 2010-08-11.20754 1.000E-05 18:28:37.430 1.500E-01 0.500 F 0.105 0.224 +47° 17' 16.20" 1.000E-01 0.500 F 0.220 -0.357 20.3 V 0.70 0.10 o 691 0.87 Yes Yes
2010OL101 O C t 2010-08-11.21159 1.000E-05 18:28:38.840 1.500E-01 0.500 F 0.105 0.092 +47° 16' 59.70" 1.000E-01 0.500 F 0.220 0.035 20.0 V 0.70 -0.20 o 691 0.20 Yes Yes
2010OL100 O C t 2010-08-11.22147 1.000E-05 15:06:08.910 1.500E-01 0.500 F -0.078 0.476 +58° 40' 54.70" 1.000E-01 0.500 F 0.225 -0.450 20.4 V 0.70 -0.03 o 691 1.35 Yes Yes
2010OL100 O C t 2010-08-11.22471 1.000E-05 15:06:07.560 1.500E-01 0.500 F -0.078 0.908 +58° 40' 59.70" 1.000E-01 0.500 F 0.225 -0.725 o 691 2.39 Yes No
2010OL100 O C t 2010-08-11.22819 1.000E-05 15:06:05.940 1.500E-01 0.500 F -0.078 0.041 +58° 41' 05.90" 1.000E-01 0.500 F 0.225 -0.185 o 691 0.39 Yes No
2010OB101 O C 2010-08-11.30063 1.000E-05 00:29:47.990 1.500E-01 0.500 F -0.063 -0.005 +29° 48' 26.30" 1.000E-01 0.500 F 0.140 0.234 20.8 V 0.70 -0.48 o 691 0.47 Yes Yes
2010OB101 O C 2010-08-11.30744 1.000E-05 00:29:47.120 1.500E-01 0.500 F -0.063 -0.135 +29° 48' 25.40" 1.000E-01 0.500 F 0.140 0.009 21.0 V 0.70 -0.28 o 691 0.27 Yes Yes
2010OB101 O C 2010-08-11.31748 1.000E-05 00:29:45.880 1.500E-01 0.500 F -0.063 0.269 +29° 48' 23.90" 1.000E-01 0.500 F 0.140 -0.476 20.7 V 0.70 -0.58 o 691 1.10 Yes Yes
2000ES70 O C H 2010-08-12.18176 1.000E-05 15:37:07.030 1.500E-01 0.500 F 0.243 0.018 +09° 38' 50.50" 1.000E-01 0.500 F 0.181 -0.272 o 691 0.54 Yes No
2000ES70 O C H 2010-08-12.20916 1.000E-05 15:37:08.350 1.500E-01 0.500 F 0.243 0.311 +09° 38' 30.30" 1.000E-01 0.500 F 0.181 -0.419 o 691 1.05 Yes No

[1-200] [201-400] [401-600] [601-800] [801-1000] [1001-1200] [1201-1400] [1401-1600] [1601-1800] [1801-2000] [2001-2200] [2201-2400] [2401-2600] [2601-2800] [2801-3000] [3001-3200] [3201-3400] [3401-3600] [3601-3800] [3801-4000] [4001-4200] [4201-4400] [4401-4600] [4601-4800] [4801-5000] [5001-5200] [5201-5400] [5401-5600] [5601-5800] [5801-6000] [6001-6200] [6201-6400] [6401-6600] [6601-6800] [6801-7000] [7001-7200] [7201-7400] [7401-7600] [7601-7800] [7801-8000] [8001-8200] [8201-8400] [8401-8600] [8601-8800] [8801-9000] [9001-9200] [9201-9400] [9401-9600] [9601-9800] [9801-10000] [10001-10200] [10201-10400] [10401-10600] [10601-10800] [10801-11000] [11001-11200] [11201-11400] [11401-11600] [11601-11800] [11801-12000] [12001-12200] [12201-12400] [12401-12600] [12601-12800] [12801-13000] [13001-13200] [13201-13400] [13401-13600] [13601-13800] [13801-14000] [14001-14200] [14201-14400] [14401-14600] [14601-14800] [14801-15000] [15001-15200] [15201-15400] [15401-15600] [15601-15800] [15801-16000] [16001-16200] [16201-16400] [16401-16600] [16601-16800] [16801-17000] [17001-17200] [17201-17400] [17401-17600] [17601-17800] [17801-18000] [18001-18200] [18201-18400] [18401-18600] [18601-18800] [18801-19000] [19001-19200] [19201-19400] [19401-19600] [19601-19800] [19801-20000] [20001-20200] [20201-20400] [20401-20600] [20601-20800] [20801-21000] [21001-21200] [21201-21400] [21401-21600] [21601-21800] [21801-22000] [22001-22200] [22201-22400] [22401-22600] [22601-22800] [22801-23000] [23001-23200] [23201-23400] [23401-23600] [23601-23800] [23801-24000] [24001-24200] [24201-24400] [24401-24600] [24601-24800] [24801-25000] [25001-25200] [25201-25400] [25401-25600] [25601-25800] [25801-26000] [26001-26200] [26201-26400] [26401-26600] [26601-26800] [26801-27000] [27001-27200] [27201-27400] [27401-27600] [27601-27800] [27801-28000] [28001-28200] [28201-28400] [28401-28600] [28601-28800] [28801-29000] [29001-29200] [29201-29400] [29401-29600] [29601-29800] [29801-30000] [30001-30200] [30201-30400] [30401-30600] [30601-30800] [30801-31000] [31001-31200] [31201-31400] [31401-31600] [31601-31800] [31801-32000] [32001-32200] [32201-32400] [32401-32600] [32601-32800] [32801-33000] [33001-33200] [33201-33400] [33401-33600] [33601-33800] [33801-34000] [34001-34200] [34201-34400] [34401-34600] [34601-34800] [34801-35000] [35001-35200] [35201-35400] [35401-35600] [35601-35800] [35801-36000] [36001-36200] [36201-36400] [36401-36600] [36601-36800] [36801-37000] [37001-37200] [37201-37400] [37401-37600] [37601-37800] [37801-38000] [38001-38200] [38201-38400] [38401-38600] [38601-38800] [38801-39000] [39001-39200] [39201-39400] [39401-39600] [39601-39800] [39801-40000] [40001-40200] [40201-40400] [40401-40600] [40601-40800] [40801-41000] [41001-41200] [41201-41400] [41401-41600] [41601-41800] [41801-42000] [42001-42200] [42201-42400] [42401-42600] [42601-42800] [42801-43000] [43001-43200] [43201-43400] [43401-43600] [43601-43800] [43801-44000] [44001-44200] [44201-44400] [44401-44600] [44601-44800] [44801-45000] [45001-45200] [45201-45400] [45401-45600] [45601-45800] [45801-46000] [46001-46200] [46201-46400] [46401-46600] [46601-46800] [46801-47000] [47001-47200] [47201-47400] [47401-47600] [47601-47800] [47801-48000] [48001-48200] [48201-48400] [48401-48600] [48601-48800] [48801-49000] [49001-49200] [49201-49400] [49401-49600] [49601-49800] [49801-50000] [50001-50200] [50201-50400] [50401-50600] [50601-50741]